Time;durP1;ratioP1;P1;durP2;ratioP2;P2;SDS_P1;SDS_P2;PMS_P1;PMS_P2;Temp;Humidity;BMP_temperature;BMP_pressure;BME280_temperature;BME280_humidity;BME280_pressure;Samples;Min_cycle;Max_cycle;Signal;HPM_P1;HPM_P2
2023/04/29 00:00:48;;;;;;;;;2.00;2.00;;;;;21.63;43.41;100617.89;110214;1264;17901;-39
2023/04/29 00:03:18;;;;;;;;;1.00;1.00;;;;;21.63;43.19;100617.18;110235;1264;18909;-39
2023/04/29 00:05:46;;;;;;;;;1.00;1.00;;;;;21.62;43.40;100616.88;110240;1264;18216;-39
2023/04/29 00:08:13;;;;;;;;;1.00;1.00;;;;;21.63;43.30;100618.43;110197;1248;19110;-39
2023/04/29 00:10:41;;;;;;;;;1.00;1.00;;;;;21.63;43.32;100616.63;110186;1251;20005;-39
2023/04/29 00:13:09;;;;;;;;;2.00;2.00;;;;;21.62;43.36;100616.16;110182;1250;18353;-42
2023/04/29 00:15:39;;;;;;;;;2.00;2.00;;;;;21.61;43.24;100612.02;110190;1264;18494;-38
2023/04/29 00:18:06;;;;;;;;;1.00;1.00;;;;;21.61;43.29;100613.52;110191;1259;21441;-39
2023/04/29 00:20:34;;;;;;;;;1.00;1.00;;;;;21.60;43.41;100608.73;110153;1259;19708;-39
2023/04/29 00:23:01;;;;;;;;;1.00;1.00;;;;;21.61;43.20;100608.64;110105;1264;19212;-39
2023/04/29 00:25:29;;;;;;;;;2.00;2.00;;;;;21.60;43.21;100612.33;110201;1265;18574;-39
2023/04/29 00:28:00;;;;;;;;;2.00;2.00;;;;;21.60;43.25;100609.39;110184;1264;18423;-39
2023/04/29 00:30:28;;;;;;;;;2.00;2.00;;;;;21.60;43.16;100608.34;110197;1264;21314;-39
2023/04/29 00:32:55;;;;;;;;;3.00;3.00;;;;;21.60;43.22;100609.43;110196;1249;19978;-39
2023/04/29 00:35:23;;;;;;;;;3.00;3.00;;;;;21.60;43.31;100609.27;110194;1251;19649;-39
2023/04/29 00:37:51;;;;;;;;;1.00;1.00;;;;;21.61;43.15;100603.90;110221;1264;19252;-39
2023/04/29 00:40:19;;;;;;;;;2.00;2.00;;;;;21.61;43.15;100606.63;110188;1248;22405;-38
2023/04/29 00:42:46;;;;;;;;;1.00;1.00;;;;;21.61;43.27;100601.89;110213;1264;18231;-39
2023/04/29 00:45:14;;;;;;;;;2.00;2.00;;;;;21.61;43.15;100598.45;110202;1264;17878;-39
2023/04/29 00:47:41;;;;;;;;;1.00;1.00;;;;;21.60;43.20;100597.02;110230;1251;19945;-39
2023/04/29 00:50:09;;;;;;;;;3.00;3.00;;;;;21.61;43.27;100592.02;110192;1251;19603;-41
2023/04/29 00:52:36;;;;;;;;;3.00;3.00;;;;;21.60;43.29;100591.02;110185;1250;19213;-39
2023/04/29 00:55:04;;;;;;;;;6.33;6.33;;;;;21.61;43.31;100590.46;110180;1264;19107;-39
2023/04/29 00:57:33;;;;;;;;;2.00;2.00;;;;;21.60;43.40;100588.52;110185;1250;19633;-39
2023/04/29 01:00:00;;;;;;;;;3.00;3.00;;;;;21.59;43.33;100586.26;110195;1265;21708;-40
2023/04/29 01:02:28;;;;;;;;;2.00;2.00;;;;;21.60;43.20;100585.64;110181;1250;20412;-38
2023/04/29 01:04:55;;;;;;;;;2.00;1.00;;;;;21.60;43.41;100586.17;110204;1250;19644;-38
2023/04/29 01:07:23;;;;;;;;;3.00;3.00;;;;;21.61;43.36;100581.91;110182;1249;20347;-38
2023/04/29 01:09:50;;;;;;;;;3.00;3.00;;;;;21.60;43.32;100584.33;110178;1265;19889;-39
2023/04/29 01:12:18;;;;;;;;;3.00;3.00;;;;;21.60;43.21;100585.47;110198;1264;19658;-39
2023/04/29 01:14:46;;;;;;;;;1.00;1.00;;;;;21.59;43.21;100583.87;110198;1250;17892;-39
2023/04/29 01:17:13;;;;;;;;;1.00;1.00;;;;;21.59;43.38;100584.29;110192;1251;20793;-39
2023/04/29 01:19:41;;;;;;;;;3.00;3.00;;;;;21.58;43.27;100584.93;110193;1265;18273;-39
2023/04/29 01:22:08;;;;;;;;;2.00;2.00;;;;;21.58;43.29;100590.73;110189;1264;18521;-39
2023/04/29 01:24:36;;;;;;;;;2.00;2.00;;;;;21.59;43.17;100587.80;110101;1250;23304;-39
2023/04/29 01:27:04;;;;;;;;;1.00;1.00;;;;;21.59;43.26;100588.06;110192;1251;18451;-40
2023/04/29 01:29:31;;;;;;;;;2.00;1.00;;;;;21.58;43.36;100585.27;110178;1264;19086;-39
2023/04/29 01:31:58;;;;;;;;;1.67;1.67;;;;;21.58;43.29;100582.54;110193;1265;19907;-40
2023/04/29 01:34:26;;;;;;;;;2.00;2.00;;;;;21.59;43.22;100580.50;110188;1265;18360;-39
2023/04/29 01:36:53;;;;;;;;;2.00;2.00;;;;;21.59;43.25;100584.90;110194;1264;18605;-39
2023/04/29 01:39:23;;;;;;;;;2.00;2.00;;;;;21.59;43.10;100586.49;110191;1265;20749;-39
2023/04/29 01:41:52;;;;;;;;;2.00;2.00;;;;;21.58;43.28;100587.88;110154;1256;23867;-39
2023/04/29 01:44:19;;;;;;;;;3.00;3.00;;;;;21.58;43.23;100587.46;110201;1264;18627;-39
2023/04/29 01:46:47;;;;;;;;;3.00;3.00;;;;;21.58;43.02;100588.41;110140;1250;22106;-40
2023/04/29 01:49:14;;;;;;;;;2.00;2.00;;;;;21.58;43.16;100587.70;110221;1264;18297;-39
2023/04/29 01:51:41;;;;;;;;;3.00;3.00;;;;;21.57;43.14;100586.27;110250;1249;20012;-41
2023/04/29 01:54:09;;;;;;;;;3.00;3.00;;;;;21.58;43.26;100585.68;110155;1265;23294;-39
2023/04/29 01:56:36;;;;;;;;;1.50;1.50;;;;;21.57;43.20;100586.85;110215;1250;19571;-37
2023/04/29 01:59:04;;;;;;;;;2.00;2.00;;;;;21.57;43.02;100587.94;110279;1250;20055;-39
2023/04/29 02:01:31;;;;;;;;;3.00;3.00;;;;;21.57;43.07;100585.38;110225;1250;20706;-39
2023/04/29 02:03:59;;;;;;;;;1.00;1.00;;;;;21.57;42.97;100583.78;110219;1256;18665;-40
2023/04/29 02:06:26;;;;;;;;;1.50;1.50;;;;;21.58;43.15;100582.80;110234;1264;20009;-39
2023/04/29 02:08:54;;;;;;;;;1.00;1.00;;;;;21.57;43.01;100581.04;110218;1265;19274;-39
2023/04/29 02:11:21;;;;;;;;;2.00;2.00;;;;;21.56;43.11;100578.64;110249;1251;19672;-39
2023/04/29 02:13:49;;;;;;;;;2.00;2.00;;;;;21.57;43.02;100574.13;110186;1264;20005;-40
2023/04/29 02:16:16;;;;;;;;;2.00;2.00;;;;;21.57;43.03;100568.71;110217;1250;20866;-39
2023/04/29 02:18:44;;;;;;;;;1.00;1.00;;;;;21.57;43.01;100577.27;110211;1250;19621;-41
2023/04/29 02:21:11;;;;;;;;;1.00;1.00;;;;;21.57;42.99;100576.14;110221;1250;18579;-39
2023/04/29 02:23:39;;;;;;;;;2.00;2.00;;;;;21.56;43.12;100570.42;110266;1251;20788;-39
2023/04/29 02:26:08;;;;;;;;;1.00;1.00;;;;;21.56;42.95;100565.52;110190;1251;19663;-39
2023/04/29 02:28:35;;;;;;;;;2.00;2.00;;;;;21.56;43.05;100565.72;110221;1264;19723;-37
2023/04/29 02:31:03;;;;;;;;;2.00;2.00;;;;;21.56;43.07;100562.08;110238;1265;20728;-39
2023/04/29 02:33:30;;;;;;;;;2.00;2.00;;;;;21.56;43.07;100562.11;110197;1251;19634;-37
2023/04/29 02:35:58;;;;;;;;;1.00;1.00;;;;;21.55;43.00;100560.18;110225;1264;19927;-38
2023/04/29 02:38:25;;;;;;;;;2.00;2.00;;;;;21.56;43.03;100557.41;110223;1251;20827;-38
2023/04/29 02:40:53;;;;;;;;;2.00;2.00;;;;;21.56;43.07;100553.55;110236;1265;18855;-38
2023/04/29 02:43:21;;;;;;;;;1.00;1.00;;;;;21.56;42.92;100548.64;110228;1264;20187;-39
2023/04/29 02:45:48;;;;;;;;;3.00;2.00;;;;;21.55;43.02;100549.30;110215;1250;19370;-39
2023/04/29 02:48:16;;;;;;;;;2.00;2.00;;;;;21.54;43.18;100542.33;110191;1264;18284;-39
2023/04/29 02:50:43;;;;;;;;;2.00;2.00;;;;;21.55;42.94;100544.61;110185;1264;18636;-39
2023/04/29 02:53:11;;;;;;;;;2.00;2.00;;;;;21.55;43.00;100543.14;110177;1251;21921;-37
2023/04/29 02:55:38;;;;;;;;;2.00;2.00;;;;;21.55;42.86;100536.84;110149;1264;19519;-37
2023/04/29 02:58:05;;;;;;;;;1.00;1.00;;;;;21.55;42.91;100540.96;110266;1250;22282;-37
2023/04/29 03:00:33;;;;;;;;;2.00;2.00;;;;;21.55;42.77;100537.14;110274;1264;19361;-39
2023/04/29 03:03:00;;;;;;;;;1.50;1.50;;;;;21.56;42.97;100540.30;110271;1264;18455;-39
2023/04/29 03:05:28;;;;;;;;;2.00;2.00;;;;;21.55;42.87;100544.19;110296;1251;21250;-39
2023/04/29 03:07:55;;;;;;;;;2.00;2.00;;;;;21.56;42.88;100539.58;110177;1250;20796;-39
2023/04/29 03:10:23;;;;;;;;;2.00;2.00;;;;;21.55;42.72;100542.93;110196;1256;18394;-39
2023/04/29 03:12:50;;;;;;;;;4.00;2.00;;;;;21.55;42.88;100545.91;110213;1264;20073;-39
2023/04/29 03:15:18;;;;;;;;;2.00;2.00;;;;;21.54;42.98;100546.32;110222;1250;20692;-39
2023/04/29 03:17:46;;;;;;;;;2.00;2.00;;;;;21.54;42.81;100548.75;110185;1256;22385;-39
2023/04/29 03:20:13;;;;;;;;;2.00;2.00;;;;;21.55;42.78;100555.43;110209;1264;18637;-38
2023/04/29 03:22:41;;;;;;;;;2.00;2.00;;;;;21.55;42.97;100551.90;110203;1265;19231;-38
2023/04/29 03:25:09;;;;;;;;;2.00;2.00;;;;;21.55;42.70;100548.80;110148;1265;19609;-38
2023/04/29 03:27:36;;;;;;;;;2.00;2.00;;;;;21.55;42.84;100552.28;110164;1249;20002;-39
2023/04/29 03:30:04;;;;;;;;;1.00;1.00;;;;;21.54;42.74;100545.30;110182;1264;19483;-39
2023/04/29 03:32:31;;;;;;;;;1.33;1.33;;;;;21.54;42.65;100545.64;110167;1265;22785;-40
2023/04/29 03:34:58;;;;;;;;;2.00;2.00;;;;;21.54;42.79;100548.37;110186;1251;20086;-38
2023/04/29 03:37:26;;;;;;;;;2.00;2.00;;;;;21.53;42.82;100547.70;110208;1264;20744;-38
2023/04/29 03:39:53;;;;;;;;;1.00;1.00;;;;;21.54;42.68;100551.43;110183;1251;19647;-38
2023/04/29 03:42:21;;;;;;;;;2.00;2.00;;;;;21.55;42.76;100553.54;110219;1264;18631;-38
2023/04/29 03:44:48;;;;;;;;;1.00;1.00;;;;;21.55;42.68;100551.20;110209;1265;19381;-38
2023/04/29 03:47:16;;;;;;;;;3.00;2.00;;;;;21.54;42.67;100546.70;110208;1251;19709;-38
2023/04/29 03:49:43;;;;;;;;;2.00;2.00;;;;;21.53;42.80;100542.65;110210;1265;19851;-38
2023/04/29 03:52:11;;;;;;;;;2.00;2.00;;;;;21.53;42.76;100538.67;110204;1251;20792;-38
2023/04/29 03:54:38;;;;;;;;;2.00;2.00;;;;;21.53;42.85;100540.82;110162;1265;19244;-40
2023/04/29 03:57:06;;;;;;;;;2.00;2.00;;;;;21.54;42.73;100544.35;110180;1251;20188;-38
2023/04/29 03:59:33;;;;;;;;;1.00;1.00;;;;;21.54;42.84;100541.15;110208;1264;20711;-38
2023/04/29 04:02:01;;;;;;;;;2.00;2.00;;;;;21.53;42.61;100541.52;110187;1264;18393;-39
2023/04/29 04:04:28;;;;;;;;;2.00;2.00;;;;;21.53;42.72;100538.63;110159;1251;20083;-38
2023/04/29 04:06:55;;;;;;;;;2.00;2.00;;;;;21.53;42.83;100534.89;110163;1264;22106;-38
2023/04/29 04:09:23;;;;;;;;;1.00;1.00;;;;;21.53;42.57;100536.15;110141;1249;22341;-37
2023/04/29 04:11:50;;;;;;;;;2.00;2.00;;;;;21.53;42.78;100539.02;110225;1250;20190;-38
2023/04/29 04:14:18;;;;;;;;;2.00;2.00;;;;;21.53;42.75;100536.13;110195;1264;19401;-39
2023/04/29 04:16:45;;;;;;;;;2.00;2.00;;;;;21.53;42.56;100531.45;110204;1264;18406;-39
2023/04/29 04:19:13;;;;;;;;;3.00;3.00;;;;;21.52;42.64;100532.27;110196;1264;20877;-39
2023/04/29 04:21:41;;;;;;;;;2.00;2.00;;;;;21.53;42.58;100536.86;110215;1250;20788;-40
2023/04/29 04:24:08;;;;;;;;;4.00;2.00;;;;;21.52;42.64;100536.26;110199;1264;19567;-38
2023/04/29 04:26:36;;;;;;;;;4.00;4.00;;;;;21.52;42.53;100536.97;110196;1264;21641;-41
2023/04/29 04:29:04;;;;;;;;;2.00;2.00;;;;;21.53;42.59;100537.70;110217;1265;19334;-38
2023/04/29 04:31:31;;;;;;;;;4.00;2.00;;;;;21.54;42.41;100535.04;110225;1265;20728;-38
2023/04/29 04:33:59;;;;;;;;;2.00;2.00;;;;;21.55;42.42;100536.22;110194;1264;19981;-38
2023/04/29 04:36:27;;;;;;;;;2.00;2.00;;;;;21.55;42.38;100535.64;110090;1264;19419;-38
2023/04/29 04:38:54;;;;;;;;;2.00;2.00;;;;;21.55;42.62;100536.25;110089;1250;19746;-38
2023/04/29 04:41:22;;;;;;;;;4.00;4.00;;;;;21.56;42.55;100538.32;110188;1264;18623;-38
2023/04/29 04:43:50;;;;;;;;;2.00;2.00;;;;;21.56;42.39;100540.13;110186;1264;20796;-39
2023/04/29 04:46:17;;;;;;;;;2.67;2.67;;;;;21.56;42.41;100543.86;110171;1249;22374;-39
2023/04/29 04:48:45;;;;;;;;;2.67;2.00;;;;;21.57;42.54;100543.32;110242;1264;19524;-39
2023/04/29 04:51:12;;;;;;;;;2.00;2.00;;;;;21.56;42.65;100547.68;110232;1265;20658;-39
2023/04/29 04:53:40;;;;;;;;;2.00;2.00;;;;;21.59;42.46;100549.61;110198;1264;18401;-39
2023/04/29 04:56:07;;;;;;;;;4.00;2.00;;;;;21.60;42.66;100546.15;110192;1265;21945;-38
2023/04/29 04:58:35;;;;;;;;;3.00;3.00;;;;;21.60;42.62;100545.77;110199;1250;20796;-38
2023/04/29 05:01:02;;;;;;;;;4.00;4.00;;;;;21.64;42.81;100546.86;110189;1264;19596;-39
2023/04/29 05:03:30;;;;;;;;;3.00;2.00;;;;;21.63;42.87;100545.34;110160;1265;22089;-38
2023/04/29 05:05:57;;;;;;;;;2.00;2.00;;;;;21.62;43.07;100545.91;110213;1265;19309;-38
2023/04/29 05:08:24;;;;;;;;;4.00;4.00;;;;;21.60;42.92;100548.17;110227;1249;19590;-38
2023/04/29 05:10:52;;;;;;;;;2.00;2.00;;;;;21.59;43.22;100551.52;110221;1251;20221;-38
2023/04/29 05:13:19;;;;;;;;;3.33;3.33;;;;;21.58;43.12;100551.70;110206;1264;20745;-38
2023/04/29 05:15:47;;;;;;;;;5.00;5.00;;;;;21.57;43.28;100549.94;110191;1265;18522;-38
2023/04/29 05:18:14;;;;;;;;;4.00;4.00;;;;;21.58;43.14;100552.35;110256;1250;18646;-38
2023/04/29 05:20:42;;;;;;;;;4.00;4.00;;;;;21.58;43.16;100553.52;110260;1264;19357;-38
2023/04/29 05:23:10;;;;;;;;;2.00;2.00;;;;;21.57;43.28;100555.03;110277;1264;19631;-37
2023/04/29 05:25:37;;;;;;;;;2.00;2.00;;;;;21.56;43.17;100554.05;110254;1264;18648;-37
2023/04/29 05:28:05;;;;;;;;;2.00;2.00;;;;;21.56;43.17;100551.41;110180;1250;22780;-38
2023/04/29 05:30:32;;;;;;;;;4.00;4.00;;;;;21.56;43.14;100554.69;110207;1264;18295;-38
2023/04/29 05:32:59;;;;;;;;;4.00;3.00;;;;;21.56;43.16;100553.26;110196;1256;20011;-38
2023/04/29 05:35:27;;;;;;;;;4.00;4.00;;;;;21.55;43.04;100554.35;110197;1265;22681;-38
2023/04/29 05:37:54;;;;;;;;;4.67;4.00;;;;;21.56;42.94;100551.54;110227;1264;20897;-39
2023/04/29 05:40:22;;;;;;;;;2.00;2.00;;;;;21.57;42.98;100552.38;110219;1265;20362;-39
2023/04/29 05:42:50;;;;;;;;;4.50;4.00;;;;;21.57;42.77;100554.70;110228;1264;19424;-39
2023/04/29 05:45:17;;;;;;;;;5.00;5.00;;;;;21.57;42.67;100552.28;110215;1250;19661;-39
2023/04/29 05:47:45;;;;;;;;;4.00;4.00;;;;;21.57;42.76;100551.60;110169;1264;19995;-39
2023/04/29 05:50:12;;;;;;;;;4.00;4.00;;;;;21.57;42.66;100551.80;110185;1264;19218;-38
2023/04/29 05:52:40;;;;;;;;;5.00;5.00;;;;;21.56;42.75;100550.99;110190;1264;22290;-40
2023/04/29 05:55:07;;;;;;;;;4.00;2.00;;;;;21.57;42.71;100552.48;110182;1265;18623;-37
2023/04/29 05:57:35;;;;;;;;;7.00;5.00;;;;;21.60;42.62;100553.66;110229;1250;20990;-38
2023/04/29 06:00:03;;;;;;;;;4.00;4.00;;;;;21.60;42.80;100551.40;110210;1250;22628;-39
2023/04/29 06:02:30;;;;;;;;;4.00;4.00;;;;;21.59;42.84;100545.55;110203;1249;21118;-38
2023/04/29 06:04:58;;;;;;;;;4.00;4.00;;;;;21.58;42.91;100544.23;110129;1264;19676;-39
2023/04/29 06:07:26;;;;;;;;;4.00;4.00;;;;;21.58;42.81;100548.55;110214;1249;20919;-39
2023/04/29 06:09:53;;;;;;;;;4.00;4.00;;;;;21.58;43.10;100551.63;110190;1264;22225;-40
2023/04/29 06:12:21;;;;;;;;;7.00;5.00;;;;;21.64;43.14;100549.76;110183;1264;20669;-39
2023/04/29 06:14:48;;;;;;;;;4.00;4.00;;;;;21.65;43.23;100555.02;110161;1250;20950;-39
2023/04/29 06:17:16;;;;;;;;;4.00;4.00;;;;;21.68;43.37;100552.14;110202;1250;18555;-39
2023/04/29 06:19:44;;;;;;;;;5.00;5.00;;;;;21.70;43.24;100554.30;110178;1265;22200;-39
2023/04/29 06:22:11;;;;;;;;;5.00;5.00;;;;;21.69;43.28;100553.95;110167;1249;18526;-40
2023/04/29 06:24:39;;;;;;;;;5.00;5.00;;;;;21.71;43.53;100557.44;110168;1264;22293;-39
2023/04/29 06:27:06;;;;;;;;;7.50;7.50;;;;;21.67;43.49;100556.58;110189;1264;20726;-39
2023/04/29 06:29:33;;;;;;;;;7.00;7.00;;;;;21.64;43.22;100551.49;110178;1265;23446;-38
2023/04/29 06:32:01;;;;;;;;;10.00;8.00;;;;;21.66;43.12;100553.25;110204;1265;18625;-38
2023/04/29 06:34:28;;;;;;;;;10.00;7.00;;;;;21.66;43.29;100551.14;110169;1256;23212;-38
2023/04/29 06:36:56;;;;;;;;;6.33;5.00;;;;;21.67;43.57;100556.06;110164;1251;19988;-39
2023/04/29 06:39:23;;;;;;;;;7.00;7.00;;;;;21.69;43.65;100553.98;110168;1264;18635;-40
2023/04/29 06:41:51;;;;;;;;;5.00;5.00;;;;;21.70;43.77;100552.39;110197;1257;19336;-40
2023/04/29 06:44:19;;;;;;;;;5.67;5.00;;;;;21.72;43.91;100553.84;110107;1256;20191;-42
2023/04/29 06:46:46;;;;;;;;;10.00;7.00;;;;;21.71;43.84;100551.22;110179;1265;18683;-40
2023/04/29 06:49:14;;;;;;;;;7.00;7.00;;;;;21.72;43.84;100554.00;110204;1251;22085;-39
2023/04/29 06:51:41;;;;;;;;;7.00;7.00;;;;;21.73;44.07;100550.95;110197;1265;18566;-39
2023/04/29 06:54:09;;;;;;;;;4.33;4.33;;;;;21.74;44.08;100551.59;110284;1264;18603;-39
2023/04/29 06:56:37;;;;;;;;;5.00;5.00;;;;;21.73;44.29;100547.34;110233;1250;20786;-39
2023/04/29 06:59:04;;;;;;;;;4.00;4.00;;;;;21.74;44.21;100546.64;110212;1264;18363;-41
2023/04/29 07:01:32;;;;;;;;;7.00;7.00;;;;;21.73;44.37;100548.02;110186;1251;20002;-43
2023/04/29 07:03:59;;;;;;;;;5.00;5.00;;;;;21.72;44.41;100546.70;110193;1256;20587;-40
2023/04/29 07:06:27;;;;;;;;;6.00;5.00;;;;;21.72;44.40;100548.85;110182;1264;18764;-39
2023/04/29 07:08:54;;;;;;;;;7.00;5.00;;;;;21.71;44.50;100545.91;110141;1264;21973;-40
2023/04/29 07:11:23;;;;;;;;;5.00;5.00;;;;;21.74;44.52;100544.84;110172;1265;22477;-38
2023/04/29 07:13:51;;;;;;;;;4.67;4.67;;;;;21.78;44.56;100541.75;110221;1250;19862;-37
2023/04/29 07:16:20;;;;;;;;;3.50;3.00;;;;;21.80;44.46;100540.47;110231;1265;20305;-38
2023/04/29 07:18:48;;;;;;;;;7.00;5.67;;;;;21.79;44.53;100539.20;110207;1251;20732;-39
2023/04/29 07:21:15;;;;;;;;;5.00;5.00;;;;;21.78;44.36;100542.21;110215;1249;19681;-39
2023/04/29 07:23:43;;;;;;;;;7.00;7.00;;;;;21.77;44.37;100546.83;110212;1259;20092;-39
2023/04/29 07:26:10;;;;;;;;;5.00;5.00;;;;;21.76;44.15;100546.02;110160;1264;19349;-39
2023/04/29 07:28:38;;;;;;;;;5.00;5.00;;;;;21.75;44.31;100545.19;110175;1264;19645;-41
2023/04/29 07:31:06;;;;;;;;;5.00;5.00;;;;;21.78;44.29;100551.82;110139;1256;20140;-38
2023/04/29 07:33:33;;;;;;;;;8.00;5.00;;;;;21.82;44.20;100549.86;110165;1265;20718;-41
2023/04/29 07:36:01;;;;;;;;;7.00;6.00;;;;;21.84;44.36;100551.79;110189;1264;18554;-40
2023/04/29 07:38:29;;;;;;;;;7.00;5.00;;;;;21.84;44.40;100551.91;110163;1250;18945;-40
2023/04/29 07:40:57;;;;;;;;;4.00;4.00;;;;;21.85;44.39;100550.58;110180;1264;22608;-41
2023/04/29 07:43:24;;;;;;;;;4.50;4.50;;;;;21.85;44.33;100550.71;110181;1250;22148;-40
2023/04/29 07:45:52;;;;;;;;;7.00;7.00;;;;;21.85;44.40;100549.98;110162;1264;22886;-40
2023/04/29 07:48:20;;;;;;;;;5.00;4.00;;;;;21.85;44.32;100549.32;110042;1265;20652;-42
2023/04/29 07:50:47;;;;;;;;;4.00;4.00;;;;;21.85;44.53;100547.48;110146;1264;19622;-40
2023/04/29 07:53:16;;;;;;;;;2.67;2.67;;;;;21.89;44.46;100549.25;110166;1265;20282;-40
2023/04/29 07:55:43;;;;;;;;;5.00;5.00;;;;;21.89;44.65;100553.71;110194;1248;23287;-39
2023/04/29 07:58:11;;;;;;;;;5.00;4.00;;;;;21.91;44.63;100551.29;110200;1265;18416;-39
2023/04/29 08:00:38;;;;;;;;;5.00;5.00;;;;;21.92;44.69;100552.05;110119;1264;18638;-38
2023/04/29 08:03:06;;;;;;;;;5.00;5.00;;;;;21.92;44.99;100556.92;110213;1264;19513;-39
2023/04/29 08:05:33;;;;;;;;;4.00;4.00;;;;;21.91;45.12;100555.11;110183;1264;19643;-39
2023/04/29 08:08:01;;;;;;;;;4.00;4.00;;;;;21.88;45.22;100553.65;110154;1264;18631;-39
2023/04/29 08:10:28;;;;;;;;;5.00;5.00;;;;;21.88;45.28;100552.38;110171;1265;19521;-39
2023/04/29 08:12:56;;;;;;;;;7.00;5.00;;;;;21.88;45.35;100552.98;110169;1248;21087;-38
2023/04/29 08:15:23;;;;;;;;;5.00;5.00;;;;;21.86;45.35;100556.20;110132;1264;21232;-39
2023/04/29 08:17:51;;;;;;;;;7.00;7.00;;;;;21.85;45.23;100557.71;110145;1250;19407;-39
2023/04/29 08:20:18;;;;;;;;;4.00;4.00;;;;;21.83;45.22;100560.09;110138;1250;19694;-39
2023/04/29 08:22:46;;;;;;;;;4.00;4.00;;;;;21.81;44.83;100559.55;110130;1264;18836;-39
2023/04/29 08:25:13;;;;;;;;;5.00;5.00;;;;;21.80;44.74;100558.81;110057;1265;19492;-39
2023/04/29 08:27:42;;;;;;;;;4.00;4.00;;;;;21.79;44.58;100554.98;109869;1265;386683;-39
2023/04/29 08:30:09;;;;;;;;;4.50;4.50;;;;;21.80;44.71;100554.99;110143;1264;22313;-39
2023/04/29 08:32:37;;;;;;;;;4.00;4.00;;;;;21.82;44.77;100564.77;110130;1264;19314;-38
2023/04/29 08:35:04;;;;;;;;;7.00;7.00;;;;;21.83;44.45;100567.42;110137;1251;19663;-42
2023/04/29 08:37:32;;;;;;;;;7.00;7.00;;;;;21.77;44.15;100570.70;110066;1250;20062;-39
2023/04/29 08:39:59;;;;;;;;;8.00;7.00;;;;;21.74;44.02;100565.73;110121;1250;20958;-40
2023/04/29 08:42:27;;;;;;;;;8.00;7.00;;;;;21.75;43.90;100568.86;110136;1257;19629;-38
2023/04/29 08:44:54;;;;;;;;;8.00;8.00;;;;;21.76;44.19;100568.92;110127;1264;18525;-41
2023/04/29 08:47:22;;;;;;;;;7.00;7.00;;;;;21.75;44.08;100574.14;110151;1264;19683;-40
2023/04/29 08:49:49;;;;;;;;;7.00;7.00;;;;;21.74;44.15;100566.31;110212;1250;22813;-40
2023/04/29 08:52:17;;;;;;;;;6.00;6.00;;;;;21.73;44.29;100574.11;110183;1265;18734;-39
2023/04/29 08:54:44;;;;;;;;;7.00;7.00;;;;;21.71;44.20;100571.02;110174;1265;20723;-38
2023/04/29 08:57:13;;;;;;;;;10.00;8.00;;;;;21.69;44.08;100575.95;110155;1265;18258;-41
2023/04/29 08:59:41;;;;;;;;;11.00;10.00;;;;;21.64;43.75;100574.48;110217;1248;23296;-40
2023/04/29 09:02:08;;;;;;;;;13.00;11.00;;;;;21.61;43.54;100576.08;110196;1264;20854;-41
2023/04/29 09:04:36;;;;;;;;;17.00;16.50;;;;;21.56;42.88;100575.20;110210;1264;23354;-39
2023/04/29 09:07:03;;;;;;;;;22.33;17.00;;;;;21.51;42.27;100577.98;110255;1264;18705;-40
2023/04/29 09:09:31;;;;;;;;;24.00;20.00;;;;;21.41;41.83;100579.45;110207;1249;20732;-40
2023/04/29 09:11:59;;;;;;;;;18.00;17.00;;;;;21.40;41.51;100581.91;110203;1256;22701;-41
2023/04/29 09:14:26;;;;;;;;;20.00;18.00;;;;;21.36;41.03;100586.72;110157;1249;20142;-41
2023/04/29 09:16:54;;;;;;;;;20.00;19.00;;;;;21.22;40.66;100587.66;110172;1264;22348;-40
2023/04/29 09:19:21;;;;;;;;;21.00;18.00;;;;;21.15;40.79;100584.70;110154;1265;18591;-39
2023/04/29 09:21:49;;;;;;;;;18.00;18.00;;;;;21.18;40.45;100584.91;110209;1264;22204;-40
2023/04/29 09:24:16;;;;;;;;;21.00;18.00;;;;;21.25;40.22;100587.33;110237;1248;19558;-40
2023/04/29 09:26:44;;;;;;;;;20.00;18.50;;;;;21.29;39.90;100590.51;110207;1251;20028;-40
2023/04/29 09:29:12;;;;;;;;;19.00;19.00;;;;;21.29;39.81;100591.96;110170;1250;22139;-40
2023/04/29 09:31:40;;;;;;;;;21.00;21.00;;;;;21.30;39.81;100592.23;110212;1251;22735;-42
2023/04/29 09:34:08;;;;;;;;;24.00;20.50;;;;;21.27;39.41;100591.20;110208;1250;22764;-40
2023/04/29 09:36:36;;;;;;;;;19.00;19.00;;;;;21.22;39.43;100590.25;110239;1248;20148;-40
2023/04/29 09:39:05;;;;;;;;;21.00;19.00;;;;;21.18;39.21;100591.27;110190;1264;19485;-40
2023/04/29 09:41:32;;;;;;;;;21.00;20.00;;;;;21.17;39.42;100588.15;110174;1249;20222;-41
2023/04/29 09:43:59;;;;;;;;;25.00;22.00;;;;;21.15;39.13;100586.20;110154;1265;20043;-40
2023/04/29 09:46:27;;;;;;;;;26.00;24.00;;;;;21.18;38.97;100584.02;110120;1264;21977;-40
2023/04/29 09:48:54;;;;;;;;;20.00;20.00;;;;;21.11;39.01;100585.77;110237;1265;19998;-40
2023/04/29 09:51:22;;;;;;;;;25.00;23.00;;;;;21.03;38.86;100580.84;110234;1264;18965;-40
2023/04/29 09:53:49;;;;;;;;;22.00;20.00;;;;;21.08;39.19;100580.29;110144;1265;20782;-40
2023/04/29 09:56:16;;;;;;;;;20.00;17.00;;;;;21.20;39.20;100580.25;110188;1256;18587;-40
2023/04/29 09:58:44;;;;;;;;;16.00;16.00;;;;;21.30;39.40;100580.70;110166;1264;18976;-40
2023/04/29 10:01:13;;;;;;;;;16.00;16.00;;;;;21.38;39.61;100574.73;110246;1264;22319;-45
2023/04/29 10:03:41;;;;;;;;;16.00;16.00;;;;;21.43;39.64;100572.06;110178;1265;22825;-40
2023/04/29 10:06:08;;;;;;;;;16.50;15.00;;;;;21.47;39.68;100574.14;110186;1250;20258;-41
2023/04/29 10:08:36;;;;;;;;;18.00;17.00;;;;;21.48;39.97;100582.59;110173;1250;20703;-40
2023/04/29 10:11:04;;;;;;;;;26.67;26.67;;;;;21.39;39.73;100585.67;110181;1250;21179;-40
2023/04/29 10:13:32;;;;;;;;;23.50;19.50;;;;;21.21;39.13;100586.85;110213;1264;22628;-41
2023/04/29 10:15:59;;;;;;;;;22.00;20.50;;;;;21.16;39.39;100585.13;110187;1264;21171;-40
2023/04/29 10:18:27;;;;;;;;;15.00;14.00;;;;;21.23;39.54;100588.44;110196;1264;19976;-40
2023/04/29 10:20:54;;;;;;;;;17.00;15.50;;;;;21.29;39.54;100588.77;110247;1264;18726;-42
2023/04/29 10:23:22;;;;;;;;;20.00;19.50;;;;;21.36;39.81;100587.05;110242;1256;19356;-40
2023/04/29 10:25:49;;;;;;;;;17.00;17.00;;;;;21.43;40.04;100582.29;110236;1256;23691;-40
2023/04/29 10:28:17;;;;;;;;;20.00;17.00;;;;;21.47;40.51;100573.22;110219;1250;21493;-40
2023/04/29 10:30:44;;;;;;;;;26.00;23.00;;;;;21.53;41.17;100576.46;110240;1264;19372;-41
2023/04/29 10:33:13;;;;;;;;;24.00;23.00;;;;;21.54;42.37;100576.44;110163;1264;18545;-41
2023/04/29 10:35:41;;;;;;;;;27.00;23.00;;;;;21.49;43.32;100574.80;110224;1265;19763;-43
2023/04/29 10:38:09;;;;;;;;;26.00;21.00;;;;;21.50;43.88;100573.02;110251;1250;20797;-42
2023/04/29 10:40:36;;;;;;;;;26.00;23.00;;;;;21.49;44.10;100569.14;110226;1264;18917;-41
2023/04/29 10:43:04;;;;;;;;;20.00;20.00;;;;;21.40;43.61;100568.40;110213;1256;23753;-39
2023/04/29 10:45:33;;;;;;;;;20.50;19.00;;;;;21.43;44.04;100565.17;110190;1264;19494;-41
2023/04/29 10:48:01;;;;;;;;;18.00;16.00;;;;;21.46;44.67;100561.66;110200;1251;20792;-41
2023/04/29 10:50:29;;;;;;;;;17.00;15.00;;;;;21.48;45.31;100562.33;110191;1265;22210;-41
2023/04/29 10:52:56;;;;;;;;;16.00;14.00;;;;;21.50;45.56;100560.71;110172;1250;20943;-41
2023/04/29 10:55:24;;;;;;;;;17.00;13.50;;;;;21.54;45.47;100556.08;110203;1256;20723;-42
2023/04/29 10:57:52;;;;;;;;;15.50;15.50;;;;;21.54;45.34;100548.92;110227;1264;19989;-41
2023/04/29 11:00:19;;;;;;;;;15.00;14.00;;;;;21.56;44.97;100547.17;110172;1264;19350;-43
2023/04/29 11:02:47;;;;;;;;;10.00;10.00;;;;;21.55;44.96;100546.83;110156;1251;20365;-40
2023/04/29 11:05:16;;;;;;;;;12.00;11.00;;;;;21.54;44.99;100545.85;110159;1265;22683;-41
2023/04/29 11:07:44;;;;;;;;;12.00;11.00;;;;;21.54;44.90;100544.22;110182;1264;22636;-41
2023/04/29 11:10:12;;;;;;;;;9.00;9.00;;;;;21.55;45.03;100545.73;110215;1264;22140;-39
2023/04/29 11:12:40;;;;;;;;;8.00;8.00;;;;;21.54;44.76;100546.19;110205;1249;19848;-41
2023/04/29 11:15:09;;;;;;;;;9.00;9.00;;;;;21.52;44.57;100540.76;110172;1265;22091;-39